Bookmark and Share
Track history (hours):
 

Sloman Herakles

Last reported at 2014-Apr-13 18:26 UTC. Time now 2014-Apr-18 13:09 UTC.
Position N 26°12' W 079°21'.

Length 145 m; draft 6.5 m.

Type: Ship (hazmat cat B). MMSI: 305851000.

NotesDate/timePositionNaut miles runAvg speedWind from/ knotsBaromVisibWave heightAir tempDewpointWater temp
2014-Apr-13 18:26N 26°12' W 079°21'910.9
2014-Apr-13 17:34N 26°11' W 079°32'1110.6
2014-Apr-13 16:34N 26°09' W 079°43'1110.9
2014-Apr-13 15:33N 26°07' W 079°55'9 9.3
2014-Apr-13 14:33N 26°06' W 080°06'1 1.3
2014-Apr-13 13:28N 26°06' W 080°07'0 0.0
2014-Apr-13 12:32N 26°06' W 080°07'0 0.0
2014-Apr-13 11:29N 26°06' W 080°07'0 0.0
2014-Apr-13 10:31N 26°06' W 080°07'0 0.0
2014-Apr-13 09:16N 26°06' W 080°07'0 0.0
2014-Apr-13 08:16N 26°06' W 080°07'0 0.0
2014-Apr-13 07:20N 26°06' W 080°07'0 0.0
2014-Apr-13 06:31N 26°06' W 080°07'0 0.0
2014-Apr-13 05:31N 26°06' W 080°07'0 0.0
2014-Apr-13 04:22N 26°06' W 080°07'0 0.0
2014-Apr-13 03:22N 26°06' W 080°07'0 0.0
2014-Apr-13 02:25N 26°06' W 080°07'0 0.0
2014-Apr-13 01:25N 26°06' W 080°07'0 0.0
2014-Apr-13 00:25N 26°06' W 080°07'0 0.0
2014-Apr-12 23:26N 26°06' W 080°07'0 0.0
2014-Apr-12 22:29N 26°06' W 080°07'0 0.0
2014-Apr-12 21:32N 26°06' W 080°07'0 0.0
2014-Apr-12 20:31N 26°06' W 080°07'0 0.0
2014-Apr-12 19:32N 26°06' W 080°07'0 0.0
2014-Apr-12 18:31N 26°06' W 080°07'0 0.5
2014-Apr-12 17:34N 26°06' W 080°07'3 3.3
2014-Apr-12 16:34N 26°08' W 080°04'0 0.1
2014-Apr-12 15:26N 26°08' W 080°05'0 0.0
2014-Apr-12 14:29N 26°08' W 080°05'0 0.0
2014-Apr-12 13:29N 26°08' W 080°05'0 0.0
2014-Apr-12 12:29N 26°08' W 080°05'0 0.0
2014-Apr-12 11:29N 26°08' W 080°05'0 0.0
2014-Apr-12 10:32N 26°08' W 080°05'0 0.0
2014-Apr-12 09:32N 26°08' W 080°05'0 0.0
2014-Apr-12 08:32N 26°08' W 080°05'0 0.0
2014-Apr-12 07:20N 26°08' W 080°04'0 0.0
2014-Apr-12 06:32N 26°08' W 080°05'0 0.0
2014-Apr-12 05:32N 26°08' W 080°05'0 0.0
2014-Apr-12 04:23N 26°08' W 080°05'0 0.0
2014-Apr-12 03:32N 26°08' W 080°05'0 0.0
2014-Apr-12 02:26N 26°08' W 080°04'0 0.0
2014-Apr-12 01:23N 26°08' W 080°04'0 0.0
2014-Apr-12 00:26N 26°08' W 080°04'0 0.0
2014-Apr-11 23:29N 26°08' W 080°04'0 0.0
2014-Apr-11 22:29N 26°08' W 080°04'0 0.0
2014-Apr-11 21:32N 26°08' W 080°04'0 0.0
2014-Apr-11 20:32N 26°08' W 080°04'0 0.0
2014-Apr-11 19:32N 26°08' W 080°04'0 0.0
2014-Apr-11 18:32N 26°08' W 080°04'0 0.0
2014-Apr-11 17:32N 26°08' W 080°04'0 0.0
2014-Apr-11 16:32N 26°08' W 080°04'0 0.0
2014-Apr-11 15:32N 26°08' W 080°04'0 0.0
2014-Apr-11 14:32N 26°08' W 080°04'0 0.0
2014-Apr-11 13:32N 26°08' W 080°04'0 0.0
2014-Apr-11 12:23N 26°08' W 080°04'0 0.0
2014-Apr-11 11:26N 26°08' W 080°04'0 0.0
2014-Apr-11 10:26N 26°08' W 080°04'0 0.0
2014-Apr-11 09:26N 26°08' W 080°04'0 0.0
2014-Apr-11 08:29N 26°08' W 080°04'0 0.0
2014-Apr-11 07:29N 26°08' W 080°04'0 0.0
2014-Apr-11 06:32N 26°08' W 080°04'0 0.0
2014-Apr-11 05:32N 26°08' W 080°04'0 0.0
2014-Apr-11 04:32N 26°08' W 080°04'0 0.0
2014-Apr-11 03:32N 26°08' W 080°04'0 0.0
2014-Apr-11 02:32N 26°08' W 080°04'0 0.0
2014-Apr-11 01:32N 26°08' W 080°04'0 0.0
2014-Apr-11 00:32N 26°08' W 080°04'0 0.0
2014-Apr-10 23:32N 26°08' W 080°04'0 0.0
2014-Apr-10 22:23N 26°08' W 080°04'0 0.0
2014-Apr-10 21:23N 26°08' W 080°04'0 0.0
2014-Apr-10 20:26N 26°08' W 080°04'0 0.0
2014-Apr-10 19:26N 26°08' W 080°04'0 0.0
2014-Apr-10 18:26N 26°08' W 080°04'0 0.0
2014-Apr-10 17:29N 26°08' W 080°04'0 0.2
2014-Apr-10 16:33N 26°08' W 080°05'0 0.3
2014-Apr-10 15:28N 26°08' W 080°05'1 1.2
2014-Apr-10 14:33N 26°07' W 080°04'8 8.2
2014-Apr-10 13:33N 26°03' W 079°56'1110.6
2014-Apr-10 12:33N 25°54' W 079°50'1313.3
2014-Apr-10 11:33N 25°40' W 079°49'  
2014-Apr-08 01:07N 27°41' W 082°35'712.8
2014-Apr-08 00:33N 27°47' W 082°31'9 9.0
2014-Apr-07 23:33N 27°55' W 082°27'1 1.3
2014-Apr-07 22:30N 27°57' W 082°27'0 0.0
2014-Apr-07 21:33N 27°57' W 082°27'0 0.0
2014-Apr-07 20:30N 27°57' W 082°27'0 0.0
2014-Apr-07 19:33N 27°57' W 082°27'0 0.0
2014-Apr-07 17:33N 27°57' W 082°27'0 0.0
2014-Apr-07 16:33N 27°57' W 082°27'0 0.0
2014-Apr-07 15:33N 27°57' W 082°27'0 0.0
2014-Apr-07 14:33N 27°57' W 082°27'0 0.0
2014-Apr-07 13:33N 27°57' W 082°27'0 0.0
2014-Apr-07 12:33N 27°57' W 082°27'0 0.0
2014-Apr-07 11:33N 27°57' W 082°27'0 0.0
2014-Apr-07 10:33N 27°57' W 082°27'0 0.0
2014-Apr-07 09:33N 27°57' W 082°27'0 0.0
2014-Apr-07 08:33N 27°57' W 082°27'0 0.0
2014-Apr-07 07:33N 27°57' W 082°27'0 0.0
2014-Apr-07 06:33N 27°57' W 082°27'0 0.0
2014-Apr-07 05:33N 27°57' W 082°27'0 0.0
2014-Apr-07 04:30N 27°57' W 082°27'0 0.0
2014-Apr-07 03:33N 27°57' W 082°27'0 0.0
2014-Apr-07 02:33N 27°57' W 082°27'0 0.0
2014-Apr-07 01:30N 27°57' W 082°27'0 0.0
2014-Apr-07 00:33N 27°57' W 082°27'0 0.0
2014-Apr-06 23:33N 27°57' W 082°27'2 1.7
2014-Apr-06 22:33N 27°55' W 082°27'7 7.2
2014-Apr-06 21:33N 27°48' W 082°28'5 4.6
2014-Apr-06 20:33N 27°45' W 082°32'7 6.6
2014-Apr-06 19:33N 27°39' W 082°36'  

Dump ship's entire track history

sailing weather and tide predictions

Sloman Herakles — V2FY4 — position and weather